Date,TemperatureHighF,TemperatureAvgF,TemperatureLowF,DewpointHighF,DewpointAvgF,DewpointLowF,HumidityHigh,HumidityAvg,HumidityLow,PressureMaxIn,PressureMinIn,WindSpeedMaxMPH,WindSpeedAvgMPH,GustSpeedMaxMPH,PrecipitationSumIn
2013-8-1,82.7,64.3,52.6,58.2,51.0,44.9,87,64,36,30.15,30.02,20,2,20,0.03
2013-8-2,81.4,65.9,52.1,57.2,52.7,48.2,92,66,38,30.16,30.00,13,1,13,0.42
2013-8-3,85.5,66.7,49.7,62.3,53.1,46.9,93,66,33,30.15,30.01,16,1,16,0.06
2013-8-4,84.5,68.1,53.5,58.7,52.1,46.9,89,61,31,30.18,30.00,13,1,13,0.06
2013-8-5,84.6,66.8,50.6,55.7,50.7,44.7,91,60,30,30.18,29.98,17,1,17,0.03
2013-8-6,85.9,65.6,51.0,54.2,49.2,44.2,88,60,30,30.07,29.91,13,1,13,0.11
2013-8-7,76.5,61.7,48.7,58.9,50.8,44.9,90,70,45,30.08,30.00,17,1,17,0.06
2013-8-8,76.2,59.5,47.7,53.8,48.6,42.7,92,70,40,30.19,30.02,15,1,15,0.00
2013-8-9,80.4,60.7,43.2,50.6,43.6,37.2,87,58,27,30.29,30.18,18,1,18,0.00
2013-8-10,84.3,60.6,47.6,52.6,47.1,42.4,88,65,29,30.36,30.15,16,1,16,0.19
2013-8-11,80.3,61.5,45.5,53.1,45.9,41.9,88,62,28,30.31,30.15,9,1,9,0.00
2013-8-12,77.6,62.5,52.0,54.8,49.2,42.7,83,63,39,30.24,30.10,15,1,15,0.00
2013-8-13,84.2,64.3,49.4,54.1,46.8,40.6,89,58,25,30.23,30.10,21,1,21,0.00
2013-8-14,83.0,64.5,48.1,52.3,44.0,39.7,78,51,25,30.24,30.07,15,1,15,0.00
2013-8-15,89.7,66.9,49.5,53.2,42.3,36.2,76,44,21,30.20,30.06,12,1,12,0.03
2013-8-16,85.0,69.8,52.4,48.6,40.6,34.3,59,37,17,30.17,30.02,15,2,15,0.00
2013-8-17,88.9,68.4,53.9,49.1,42.2,37.2,60,41,19,30.16,29.98,18,3,18,0.00
2013-8-18,87.3,67.0,52.9,51.5,45.0,39.4,66,47,23,30.15,30.01,17,3,17,0.00
2013-8-19,84.3,65.9,52.3,54.7,48.7,43.9,75,56,29,30.14,30.01,22,3,22,0.05
2013-8-20,87.3,63.3,51.0,60.7,50.0,42.7,83,64,30,30.14,30.02,23,2,23,0.41
2013-8-21,85.5,63.6,52.7,57.4,50.9,45.2,80,65,34,30.20,30.07,16,3,16,0.02
2013-8-22,85.8,64.3,52.3,57.7,49.9,41.6,80,62,32,30.22,30.05,13,2,13,0.09
2013-8-23,66.8,52.8,47.8,46.5,41.2,38.0,70,65,46,30.20,30.16,8,2,8,0.00
2013-8-24,78.0,64.5,49.4,55.1,50.1,42.3,88,61,39,30.21,30.07,16,2,16,0.02
2013-8-25,78.1,61.5,52.6,58.0,52.8,47.4,92,75,41,30.31,30.17,22,2,22,0.15
2013-8-26,79.4,61.8,50.3,56.6,51.1,46.4,88,70,38,30.34,30.18,18,2,18,0.09
2013-8-27,83.4,66.1,50.4,56.1,49.8,44.5,81,59,36,30.24,30.04,15,3,15,0.00
2013-8-28,84.0,65.9,51.4,61.1,50.3,42.6,85,60,32,30.21,30.02,14,2,14,0.17
2013-8-29,87.5,64.3,52.7,59.3,51.0,45.2,85,65,31,30.23,30.09,22,3,22,0.15
2013-8-30,86.0,66.3,52.5,58.1,50.6,46.8,82,60,30,30.23,30.06,13,2,13,0.00
2013-8-31,87.5,68.9,54.0,53.8,48.5,44.6,71,51,26,30.12,29.92,17,4,17,0.00